Time;durP1;ratioP1;P1;durP2;ratioP2;P2;SDS_P1;SDS_P2;PMS_P1;PMS_P2;Temp;Humidity;BMP_temperature;BMP_pressure;BME280_temperature;BME280_humidity;BME280_pressure;Samples;Min_cycle;Max_cycle;Signal;HPM_P1;HPM_P2
2023/04/15 00:01:52;;;;;;;;;;;21.50;51.50;;;;;;1523612;76;1940;-66
2023/04/15 00:03:54;;;;;;;;;;;21.50;51.50;;;;;;1511753;76;1396;-66
2023/04/15 00:05:57;;;;;;;;;;;21.50;51.40;;;;;;1526819;76;720;-66
2023/04/15 00:08:00;;;;;;;;;;;21.60;51.40;;;;;;1522260;76;714;-66
2023/04/15 00:10:03;;;;;;;;;;;21.60;51.30;;;;;;1547509;75;1127;-66
2023/04/15 00:12:05;;;;;;;;;;;21.60;51.40;;;;;;1565971;75;806;-67
2023/04/15 00:14:07;;;;;;;;;;;21.60;51.20;;;;;;1559081;74;1204;-65
2023/04/15 00:16:09;;;;;;;;;;;21.50;51.40;;;;;;1555222;75;757;-65
2023/04/15 00:18:11;;;;;;;;;;;21.60;51.30;;;;;;1561809;75;1547;-66
2023/04/15 00:20:13;;;;;;;;;;;21.50;51.40;;;;;;1560410;75;634;-67
2023/04/15 00:22:16;;;;;;;;;;;21.50;51.50;;;;;;1563076;75;1957;-69
2023/04/15 00:24:17;;;;;;;;;;;21.50;51.50;;;;;;1560828;74;1156;-68
2023/04/15 00:26:19;;;;;;;;;;;21.50;51.80;;;;;;1566712;75;765;-66
2023/04/15 00:28:21;;;;;;;;;;;21.40;51.50;;;;;;1566034;75;634;-66
2023/04/15 00:30:24;;;;;;;;;;;21.50;52.00;;;;;;1558306;75;747;-66
2023/04/15 00:32:26;;;;;;;;;;;21.40;51.80;;;;;;1560281;75;1582;-65
2023/04/15 00:34:28;;;;;;;;;;;21.50;51.90;;;;;;1565117;75;1142;-65
2023/04/15 00:36:30;;;;;;;;;;;21.40;51.70;;;;;;1563481;75;542;-65
2023/04/15 00:38:32;;;;;;;;;;;21.40;51.60;;;;;;1565662;75;555;-67
2023/04/15 00:40:34;;;;;;;;;;;21.50;51.70;;;;;;1558224;75;1926;-67
2023/04/15 00:42:36;;;;;;;;;;;21.50;51.60;;;;;;1566028;75;650;-66
2023/04/15 00:44:38;;;;;;;;;;;21.50;51.60;;;;;;1558003;74;1123;-67
2023/04/15 00:46:40;;;;;;;;;;;21.50;51.70;;;;;;1563796;75;1681;-67
2023/04/15 00:48:42;;;;;;;;;;;21.50;51.70;;;;;;1568886;75;740;-69
2023/04/15 00:50:44;;;;;;;;;;;21.50;51.70;;;;;;1565396;75;728;-68
2023/04/15 00:52:46;;;;;;;;;;;21.50;51.80;;;;;;1567271;75;706;-68
2023/04/15 00:54:48;;;;;;;;;;;21.50;51.80;;;;;;1565681;75;1086;-68
2023/04/15 00:56:50;;;;;;;;;;;21.50;51.70;;;;;;1559754;75;700;-70
2023/04/15 00:58:54;;;;;;;;;;;21.50;52.00;;;;;;1568734;75;776;-69
2023/04/15 01:00:56;;;;;;;;;;;21.40;51.80;;;;;;1567053;75;1920;-69
2023/04/15 01:02:58;;;;;;;;;;;21.50;52.00;;;;;;1561173;75;756;-68
2023/04/15 01:05:00;;;;;;;;;;;21.40;51.80;;;;;;1560393;75;1071;-68
2023/04/15 01:07:02;;;;;;;;;;;21.40;51.90;;;;;;1551348;75;677;-68
2023/04/15 01:09:04;;;;;;;;;;;21.40;51.80;;;;;;1541657;75;682;-68
2023/04/15 01:11:06;;;;;;;;;;;21.40;51.90;;;;;;1546237;75;1052;-69
2023/04/15 01:13:08;;;;;;;;;;;21.40;52.00;;;;;;1561081;75;1571;-68
2023/04/15 01:15:10;;;;;;;;;;;21.40;52.00;;;;;;1552431;75;1171;-69
2023/04/15 01:17:12;;;;;;;;;;;21.40;52.00;;;;;;1547624;75;734;-67
2023/04/15 01:19:14;;;;;;;;;;;21.40;51.90;;;;;;1550911;75;719;-67
2023/04/15 01:21:16;;;;;;;;;;;21.40;52.10;;;;;;1559112;75;1935;-69
2023/04/15 01:23:17;;;;;;;;;;;21.40;52.00;;;;;;1556365;75;635;-70
2023/04/15 01:25:19;;;;;;;;;;;21.40;52.30;;;;;;1554291;75;1135;-69
2023/04/15 01:27:21;;;;;;;;;;;21.30;52.20;;;;;;1562148;75;1451;-69
2023/04/15 01:29:23;;;;;;;;;;;21.40;52.30;;;;;;1550704;75;743;-69
2023/04/15 01:31:26;;;;;;;;;;;21.30;52.40;;;;;;1546557;75;732;-69
2023/04/15 01:33:28;;;;;;;;;;;21.40;52.40;;;;;;1557493;75;800;-67
2023/04/15 01:35:29;;;;;;;;;;;21.40;52.40;;;;;;1556345;75;1165;-67
2023/04/15 01:37:31;;;;;;;;;;;21.30;52.30;;;;;;1557072;75;824;-67
2023/04/15 01:39:34;;;;;;;;;;;21.40;52.30;;;;;;1552541;75;698;-67
2023/04/15 01:41:36;;;;;;;;;;;21.30;52.20;;;;;;1565502;75;1914;-67
2023/04/15 01:43:38;;;;;;;;;;;21.30;52.20;;;;;;1546589;74;1162;-67
2023/04/15 01:45:39;;;;;;;;;;;21.30;52.20;;;;;;1556298;75;721;-67
2023/04/15 01:47:42;;;;;;;;;;;21.40;52.10;;;;;;1548614;75;721;-67
2023/04/15 01:49:44;;;;;;;;;;;21.40;52.20;;;;;;1557304;75;745;-67
2023/04/15 01:51:46;;;;;;;;;;;21.30;52.30;;;;;;1550067;75;653;-69
2023/04/15 01:53:48;;;;;;;;;;;21.40;52.40;;;;;;1559018;75;1063;-68
2023/04/15 01:55:50;;;;;;;;;;;21.30;52.30;;;;;;1553268;75;1393;-68
2023/04/15 01:57:52;;;;;;;;;;;21.40;52.40;;;;;;1551853;75;1049;-68
2023/04/15 01:59:54;;;;;;;;;;;21.40;52.30;;;;;;1551237;75;677;-68
2023/04/15 02:01:56;;;;;;;;;;;21.30;52.50;;;;;;1559503;75;1906;-68
2023/04/15 02:03:58;;;;;;;;;;;21.30;52.50;;;;;;1556078;75;1200;-66
2023/04/15 02:06:00;;;;;;;;;;;21.30;52.50;;;;;;1563907;75;741;-67
2023/04/15 02:08:02;;;;;;;;;;;21.40;52.40;;;;;;1555040;75;661;-67
2023/04/15 02:10:04;;;;;;;;;;;21.30;52.40;;;;;;1555682;75;1535;-67
2023/04/15 02:12:06;;;;;;;;;;;21.30;52.30;;;;;;1563397;75;908;-68
2023/04/15 02:14:08;;;;;;;;;;;21.40;52.30;;;;;;1564046;75;1198;-67
2023/04/15 02:16:16;;;;;;;;;;;21.40;52.20;;;;;;1561218;75;731;-66
2023/04/15 02:18:18;;;;;;;;;;;21.40;52.10;;;;;;1562400;75;767;-66
2023/04/15 02:20:21;;;;;;;;;;;21.40;52.00;;;;;;1563683;75;721;-66
2023/04/15 02:22:23;;;;;;;;;;;21.50;52.10;;;;;;1563550;75;1926;-69
2023/04/15 02:24:25;;;;;;;;;;;21.40;52.00;;;;;;1560426;74;1386;-67
2023/04/15 02:26:27;;;;;;;;;;;21.50;52.00;;;;;;1561086;75;652;-67
2023/04/15 02:28:28;;;;;;;;;;;21.50;52.00;;;;;;1559093;75;717;-68
2023/04/15 02:30:30;;;;;;;;;;;21.50;52.00;;;;;;1563749;75;757;-67
2023/04/15 02:32:32;;;;;;;;;;;21.50;52.10;;;;;;1561804;75;695;-68
2023/04/15 02:34:34;;;;;;;;;;;21.50;52.20;;;;;;1558456;75;1136;-69
2023/04/15 02:36:36;;;;;;;;;;;21.50;52.10;;;;;;1563655;75;803;-69
2023/04/15 02:38:43;;;;;;;;;;;21.50;51.90;;;;;;1567787;75;1555;-70
2023/04/15 02:40:42;;;;;;;;;;;21.50;51.80;;;;;;1551551;75;1539;-68
2023/04/15 02:42:44;;;;;;;;;;;21.50;52.10;;;;;;1563562;75;1934;-69
2023/04/15 02:44:45;;;;;;;;;;;21.50;52.10;;;;;;1565282;74;1133;-68
2023/04/15 02:46:51;;;;;;;;;;;21.50;52.10;;;;;;1553885;75;684;-68
2023/04/15 02:48:52;;;;;;;;;;;21.50;51.90;;;;;;1559259;75;1724;-69
2023/04/15 02:50:54;;;;;;;;;;;21.50;52.00;;;;;;1552650;75;651;-70
2023/04/15 02:52:56;;;;;;;;;;;21.50;52.00;;;;;;1533121;76;1640;-68
2023/04/15 02:55:01;;;;;;;;;;;21.50;52.00;;;;;;1499556;77;1149;-69
2023/04/15 02:57:02;;;;;;;;;;;21.50;52.00;;;;;;1490888;78;1626;-69
2023/04/15 02:59:04;;;;;;;;;;;21.50;52.00;;;;;;1491650;78;693;-69
2023/04/15 03:01:07;;;;;;;;;;;21.50;52.00;;;;;;1497858;78;706;-69
2023/04/15 03:03:09;;;;;;;;;;;21.50;52.10;;;;;;1483624;78;1933;-69
2023/04/15 03:05:12;;;;;;;;;;;21.40;52.00;;;;;;1524876;76;1146;-67
2023/04/15 03:07:13;;;;;;;;;;;21.40;52.00;;;;;;1518487;77;1461;-69
2023/04/15 03:09:15;;;;;;;;;;;21.40;52.10;;;;;;1525310;77;793;-69
2023/04/15 03:11:17;;;;;;;;;;;21.40;52.10;;;;;;1530073;77;1083;-69
2023/04/15 03:13:20;;;;;;;;;;;21.40;51.90;;;;;;1505002;76;720;-67
2023/04/15 03:15:22;;;;;;;;;;;21.40;52.00;;;;;;1509960;78;1116;-67
2023/04/15 03:17:24;;;;;;;;;;;21.40;52.20;;;;;;1512823;77;785;-66
2023/04/15 03:19:26;;;;;;;;;;;21.50;52.30;;;;;;1518963;77;759;-66
2023/04/15 03:21:28;;;;;;;;;;;21.40;52.10;;;;;;1520641;77;1936;-67
2023/04/15 03:23:30;;;;;;;;;;;21.40;52.20;;;;;;1515264;77;700;-67
2023/04/15 03:25:32;;;;;;;;;;;21.50;52.40;;;;;;1488529;78;1058;-66
2023/04/15 03:27:34;;;;;;;;;;;21.50;52.30;;;;;;1519159;77;699;-66
2023/04/15 03:29:36;;;;;;;;;;;21.50;52.30;;;;;;1516212;77;626;-65
2023/04/15 03:31:38;;;;;;;;;;;21.50;52.30;;;;;;1511894;77;672;-65
2023/04/15 03:33:40;;;;;;;;;;;21.50;52.30;;;;;;1514801;77;1114;-65
2023/04/15 03:35:41;;;;;;;;;;;21.50;52.30;;;;;;1497023;78;1547;-65
2023/04/15 03:37:43;;;;;;;;;;;21.60;52.20;;;;;;1481063;78;753;-66
2023/04/15 03:39:45;;;;;;;;;;;21.60;52.70;;;;;;1476612;78;753;-69
2023/04/15 03:41:47;;;;;;;;;;;21.50;53.00;;;;;;1479120;78;1929;-67
2023/04/15 03:43:50;;;;;;;;;;;21.40;53.10;;;;;;1486153;78;1141;-67
2023/04/15 03:45:52;;;;;;;;;;;21.40;53.00;;;;;;1559002;75;1063;-68
2023/04/15 03:47:55;;;;;;;;;;;21.40;52.90;;;;;;1547910;75;1564;-68
2023/04/15 03:49:56;;;;;;;;;;;21.50;52.80;;;;;;1564761;75;745;-68
2023/04/15 03:51:58;;;;;;;;;;;21.50;52.70;;;;;;1552578;75;749;-68
2023/04/15 03:54:01;;;;;;;;;;;21.60;52.40;;;;;;1555331;75;1146;-66
2023/04/15 03:56:03;;;;;;;;;;;21.60;52.40;;;;;;1558166;75;758;-67
2023/04/15 03:58:05;;;;;;;;;;;21.60;52.20;;;;;;1556037;75;710;-67
2023/04/15 04:00:08;;;;;;;;;;;21.60;52.20;;;;;;1544895;75;755;-67
2023/04/15 04:02:10;;;;;;;;;;;21.70;52.20;;;;;;1520321;77;1924;-67
2023/04/15 04:04:12;;;;;;;;;;;21.60;52.10;;;;;;1549597;75;1156;-67
2023/04/15 04:06:14;;;;;;;;;;;21.70;52.10;;;;;;1556304;75;793;-66
2023/04/15 04:08:18;;;;;;;;;;;21.70;52.10;;;;;;1560106;75;736;-68
2023/04/15 04:10:20;;;;;;;;;;;21.60;52.10;;;;;;1557621;75;743;-69
2023/04/15 04:12:22;;;;;;;;;;;21.70;52.20;;;;;;1549195;75;944;-70
2023/04/15 04:14:28;;;;;;;;;;;21.70;52.20;;;;;;1559344;74;1152;-69
2023/04/15 04:16:27;;;;;;;;;;;21.70;52.40;;;;;;1555718;75;1518;-67
2023/04/15 04:18:30;;;;;;;;;;;21.50;53.10;;;;;;1554186;75;793;-68
2023/04/15 04:20:32;;;;;;;;;;;21.50;52.90;;;;;;1562783;75;684;-65
2023/04/15 04:22:42;;;;;;;;;;;21.60;52.80;;;;;;1550765;75;1951;-66
2023/04/15 04:24:42;;;;;;;;;;;21.60;52.50;;;;;;1551501;74;1453;-67
2023/04/15 04:26:43;;;;;;;;;;;21.70;52.40;;;;;;1561050;75;751;-66
2023/04/15 04:28:45;;;;;;;;;;;21.70;52.30;;;;;;1560507;75;727;-66
2023/04/15 04:30:47;;;;;;;;;;;21.70;52.10;;;;;;1563560;75;1525;-66
2023/04/15 04:32:50;;;;;;;;;;;21.80;52.10;;;;;;1553812;75;692;-67
2023/04/15 04:34:52;;;;;;;;;;;21.70;52.00;;;;;;1556641;74;1146;-67
2023/04/15 04:36:54;;;;;;;;;;;21.80;51.90;;;;;;1565566;75;727;-68
2023/04/15 04:38:56;;;;;;;;;;;21.70;51.90;;;;;;1561416;75;727;-68
2023/04/15 04:40:58;;;;;;;;;;;21.80;51.90;;;;;;1556450;75;813;-67
2023/04/15 04:43:00;;;;;;;;;;;21.70;51.90;;;;;;1545973;75;1958;-68
2023/04/15 04:45:02;;;;;;;;;;;21.70;51.90;;;;;;1558648;74;1579;-67
2023/04/15 04:47:05;;;;;;;;;;;21.70;51.90;;;;;;1550431;75;694;-67
2023/04/15 04:49:07;;;;;;;;;;;21.70;51.90;;;;;;1556841;75;827;-68
2023/04/15 04:51:09;;;;;;;;;;;21.70;51.80;;;;;;1564136;75;713;-69
2023/04/15 04:53:11;;;;;;;;;;;21.80;51.80;;;;;;1564877;75;782;-67
2023/04/15 04:55:13;;;;;;;;;;;21.80;51.90;;;;;;1559800;74;1088;-66
2023/04/15 04:57:15;;;;;;;;;;;21.80;51.90;;;;;;1564241;75;745;-68
2023/04/15 04:59:17;;;;;;;;;;;21.70;52.00;;;;;;1558835;75;1538;-67
2023/04/15 05:01:19;;;;;;;;;;;21.70;51.90;;;;;;1562614;75;656;-68
2023/04/15 05:03:21;;;;;;;;;;;21.70;52.00;;;;;;1505165;78;1926;-68
2023/04/15 05:05:23;;;;;;;;;;;21.70;52.00;;;;;;1506450;77;1111;-69
2023/04/15 05:07:25;;;;;;;;;;;21.80;52.00;;;;;;1522673;77;744;-68
2023/04/15 05:09:27;;;;;;;;;;;21.80;52.00;;;;;;1525912;77;767;-68
2023/04/15 05:11:29;;;;;;;;;;;21.70;52.00;;;;;;1528928;76;674;-69
2023/04/15 05:13:31;;;;;;;;;;;21.70;52.00;;;;;;1521341;77;1553;-69
2023/04/15 05:15:35;;;;;;;;;;;21.70;52.00;;;;;;1524496;76;1196;-68
2023/04/15 05:17:37;;;;;;;;;;;21.80;52.10;;;;;;1528124;76;1868;-68
2023/04/15 05:19:39;;;;;;;;;;;21.70;52.10;;;;;;1528771;76;741;-69
2023/04/15 05:21:41;;;;;;;;;;;21.70;52.00;;;;;;1528795;76;700;-69
2023/04/15 05:23:43;;;;;;;;;;;21.70;52.00;;;;;;1524754;76;1997;-70
2023/04/15 05:25:44;;;;;;;;;;;21.80;52.00;;;;;;1523129;76;753;-67
2023/04/15 05:27:46;;;;;;;;;;;21.70;52.10;;;;;;1527701;76;1318;-67
2023/04/15 05:29:48;;;;;;;;;;;21.70;52.10;;;;;;1532025;76;785;-68
2023/04/15 05:31:50;;;;;;;;;;;21.70;52.00;;;;;;1526852;77;799;-68
2023/04/15 05:33:52;;;;;;;;;;;21.70;52.10;;;;;;1520849;76;1197;-69
2023/04/15 05:35:54;;;;;;;;;;;21.70;52.10;;;;;;1523074;76;721;-68
2023/04/15 05:37:56;;;;;;;;;;;21.70;51.90;;;;;;1534535;76;774;-68
2023/04/15 05:39:58;;;;;;;;;;;21.80;52.10;;;;;;1525087;76;772;-68
2023/04/15 05:42:00;;;;;;;;;;;21.70;52.20;;;;;;1526806;77;1549;-68
2023/04/15 05:44:02;;;;;;;;;;;21.60;52.00;;;;;;1528128;76;1934;-66
2023/04/15 05:46:03;;;;;;;;;;;21.70;52.10;;;;;;1525644;76;707;-67
2023/04/15 05:48:05;;;;;;;;;;;21.70;52.30;;;;;;1516479;76;641;-68
2023/04/15 05:50:08;;;;;;;;;;;21.60;52.30;;;;;;1526617;77;578;-65
2023/04/15 05:52:10;;;;;;;;;;;21.60;52.30;;;;;;1531451;76;653;-68
2023/04/15 05:54:11;;;;;;;;;;;21.70;52.30;;;;;;1523059;76;1148;-67
2023/04/15 05:56:13;;;;;;;;;;;21.60;52.30;;;;;;1522645;76;1639;-67
2023/04/15 05:58:15;;;;;;;;;;;21.70;52.40;;;;;;1526572;76;836;-69
2023/04/15 06:00:17;;;;;;;;;;;21.70;52.40;;;;;;1519579;77;732;-68
2023/04/15 06:02:19;;;;;;;;;;;21.70;52.30;;;;;;1529205;77;669;-68
2023/04/15 06:04:21;;;;;;;;;;;21.70;52.40;;;;;;1533538;76;1905;-68
2023/04/15 06:06:24;;;;;;;;;;;21.70;52.60;;;;;;1536684;76;718;-68
2023/04/15 06:08:26;;;;;;;;;;;21.70;52.50;;;;;;1530491;76;764;-68
2023/04/15 06:10:28;;;;;;;;;;;21.70;52.50;;;;;;1527881;76;698;-69
2023/04/15 06:12:30;;;;;;;;;;;21.70;52.60;;;;;;1528120;76;759;-70
2023/04/15 06:14:32;;;;;;;;;;;21.70;52.80;;;;;;1519469;76;1195;-68
2023/04/15 06:16:35;;;;;;;;;;;21.80;52.60;;;;;;1517518;77;748;-69
2023/04/15 06:18:37;;;;;;;;;;;21.80;52.60;;;;;;1520823;76;705;-68
2023/04/15 06:20:39;;;;;;;;;;;21.80;52.60;;;;;;1518147;76;708;-71
2023/04/15 06:22:41;;;;;;;;;;;21.70;52.60;;;;;;1523981;76;1941;-69
2023/04/15 06:24:43;;;;;;;;;;;21.80;52.60;;;;;;1522978;76;1159;-69
2023/04/15 06:26:44;;;;;;;;;;;21.80;52.50;;;;;;1516655;76;689;-69
2023/04/15 06:28:46;;;;;;;;;;;21.70;52.40;;;;;;1526759;76;669;-69
2023/04/15 06:30:48;;;;;;;;;;;21.80;52.90;;;;;;1521656;76;706;-68
2023/04/15 06:32:50;;;;;;;;;;;21.70;53.20;;;;;;1525301;76;697;-68
2023/04/15 06:34:52;;;;;;;;;;;21.60;53.40;;;;;;1520599;76;1151;-71
2023/04/15 06:36:54;;;;;;;;;;;21.60;53.60;;;;;;1518775;76;1547;-69
2023/04/15 06:38:56;;;;;;;;;;;21.60;53.60;;;;;;1519748;77;708;-69
2023/04/15 06:40:57;;;;;;;;;;;21.50;53.70;;;;;;1518495;76;688;-68
2023/04/15 06:42:59;;;;;;;;;;;21.50;53.70;;;;;;1527793;76;1932;-67
2023/04/15 06:45:01;;;;;;;;;;;21.50;53.80;;;;;;1520403;76;1166;-69
2023/04/15 06:47:03;;;;;;;;;;;21.30;53.90;;;;;;1522137;76;705;-70
2023/04/15 06:49:05;;;;;;;;;;;21.40;53.80;;;;;;1492354;78;632;-67
2023/04/15 06:51:07;;;;;;;;;;;21.50;53.70;;;;;;1491764;78;1561;-69
2023/04/15 06:53:09;;;;;;;;;;;21.50;53.50;;;;;;1516689;77;676;-67
2023/04/15 06:55:11;;;;;;;;;;;21.60;53.60;;;;;;1519552;76;1098;-68
2023/04/15 06:57:13;;;;;;;;;;;21.50;52.60;;;;;;1521041;77;728;-68
2023/04/15 06:59:15;;;;;;;;;;;21.50;51.90;;;;;;1510724;76;735;-67
2023/04/15 07:01:17;;;;;;;;;;;21.40;51.30;;;;;;1477116;78;1116;-67
2023/04/15 07:03:19;;;;;;;;;;;21.50;50.70;;;;;;1550760;74;1917;-67
2023/04/15 07:05:21;;;;;;;;;;;21.50;49.90;;;;;;1556960;74;1528;-67
2023/04/15 07:07:22;;;;;;;;;;;21.50;49.20;;;;;;1559077;75;1033;-67
2023/04/15 07:09:25;;;;;;;;;;;21.40;48.70;;;;;;1555373;75;1349;-67
2023/04/15 07:11:27;;;;;;;;;;;21.40;48.30;;;;;;1555095;74;1300;-67
2023/04/15 07:13:30;;;;;;;;;;;21.40;47.90;;;;;;1562477;74;1248;-67
2023/04/15 07:15:32;;;;;;;;;;;21.30;47.40;;;;;;1557988;75;1548;-67
2023/04/15 07:17:34;;;;;;;;;;;21.30;47.90;;;;;;1554932;74;1356;-67
2023/04/15 07:19:36;;;;;;;;;;;21.30;46.70;;;;;;1555964;74;1445;-67
2023/04/15 07:21:38;;;;;;;;;;;21.30;47.20;;;;;;1563240;74;1475;-67
2023/04/15 07:23:40;;;;;;;;;;;21.20;46.70;;;;;;1555249;75;1953;-67
2023/04/15 07:25:42;;;;;;;;;;;21.20;46.50;;;;;;1557874;75;1114;-69
2023/04/15 07:27:44;;;;;;;;;;;21.10;46.50;;;;;;1555171;75;1333;-68
2023/04/15 07:29:46;;;;;;;;;;;21.20;47.10;;;;;;1553354;75;1458;-68
2023/04/15 07:31:48;;;;;;;;;;;21.40;47.50;;;;;;1554724;74;1277;-68
2023/04/15 07:33:50;;;;;;;;;;;21.40;47.60;;;;;;1554847;74;1479;-68
2023/04/15 07:35:52;;;;;;;;;;;21.50;47.70;;;;;;1555202;75;1096;-69
2023/04/15 07:37:54;;;;;;;;;;;21.50;47.70;;;;;;1556806;75;1106;-68
2023/04/15 07:39:56;;;;;;;;;;;21.60;47.80;;;;;;1557157;75;1408;-68
2023/04/15 07:41:58;;;;;;;;;;;21.60;47.70;;;;;;1550637;74;1358;-70
2023/04/15 07:43:59;;;;;;;;;;;21.60;47.80;;;;;;1548589;75;1950;-68
2023/04/15 07:46:01;;;;;;;;;;;21.60;47.80;;;;;;1559094;74;1134;-68
2023/04/15 07:48:03;;;;;;;;;;;21.60;47.80;;;;;;1555812;75;1460;-70
2023/04/15 07:50:06;;;;;;;;;;;21.60;47.90;;;;;;1545123;74;1043;-68
2023/04/15 07:52:08;;;;;;;;;;;21.70;48.10;;;;;;1557647;75;1480;-68
2023/04/15 07:54:10;;;;;;;;;;;21.60;47.80;;;;;;1553993;74;1514;-67
2023/04/15 07:56:12;;;;;;;;;;;21.60;47.90;;;;;;1556253;74;1129;-68
2023/04/15 07:58:14;;;;;;;;;;;21.60;47.80;;;;;;1548166;75;1139;-68
2023/04/15 08:00:17;;;;;;;;;;;21.70;48.00;;;;;;1555943;75;1041;-68
2023/04/15 08:02:19;;;;;;;;;;;21.70;48.00;;;;;;1545072;74;1479;-68
2023/04/15 08:04:21;;;;;;;;;;;21.70;48.00;;;;;;1552423;75;1931;-68
2023/04/15 08:06:23;;;;;;;;;;;21.70;48.10;;;;;;1552064;75;1040;-68
2023/04/15 08:08:25;;;;;;;;;;;21.60;47.90;;;;;;1534419;75;1598;-68
2023/04/15 08:10:28;;;;;;;;;;;21.70;48.10;;;;;;1539976;75;1345;-68
2023/04/15 08:12:30;;;;;;;;;;;21.70;48.10;;;;;;1538778;75;1132;-67
2023/04/15 08:14:32;;;;;;;;;;;21.70;48.00;;;;;;1534948;76;1166;-68
2023/04/15 08:16:34;;;;;;;;;;;21.70;48.10;;;;;;1555354;74;1358;-67
2023/04/15 08:18:36;;;;;;;;;;;21.70;48.00;;;;;;1554966;75;1652;-68
2023/04/15 08:20:38;;;;;;;;;;;21.70;47.30;;;;;;1555727;74;1101;-68
2023/04/15 08:22:40;;;;;;;;;;;21.60;44.30;;;;;;1550958;75;1158;-68
2023/04/15 08:24:42;;;;;;;;;;;21.60;44.90;;;;;;1549686;75;2093;-68
2023/04/15 08:26:45;;;;;;;;;;;21.60;45.20;;;;;;1543484;75;1169;-68
2023/04/15 08:28:47;;;;;;;;;;;21.60;45.40;;;;;;1554334;74;1670;-68
2023/04/15 08:30:50;;;;;;;;;;;21.60;45.60;;;;;;1561192;74;1531;-68
2023/04/15 08:32:51;;;;;;;;;;;21.60;45.70;;;;;;1554069;75;1176;-68
2023/04/15 08:34:53;;;;;;;;;;;21.70;45.80;;;;;;1559130;75;1216;-68
2023/04/15 08:36:55;;;;;;;;;;;21.70;45.90;;;;;;1550135;75;1084;-68
2023/04/15 08:38:57;;;;;;;;;;;21.70;45.90;;;;;;1555250;75;1153;-68
2023/04/15 08:41:03;;;;;;;;;;;21.60;45.80;;;;;;1564299;75;1113;-68
2023/04/15 08:43:05;;;;;;;;;;;21.60;45.90;;;;;;1558363;75;1125;-68
2023/04/15 08:45:10;;;;;;;;;;;21.70;46.00;;;;;;1494876;78;1946;-68
2023/04/15 08:47:12;;;;;;;;;;;21.60;45.90;;;;;;1495635;78;1073;-67
2023/04/15 08:49:14;;;;;;;;;;;21.60;46.00;;;;;;1486263;78;1374;-67
2023/04/15 08:51:16;;;;;;;;;;;21.70;46.10;;;;;;1557869;74;1461;-67
2023/04/15 08:53:18;;;;;;;;;;;21.60;46.10;;;;;;1566213;75;1247;-68
2023/04/15 08:55:20;;;;;;;;;;;21.60;46.10;;;;;;1555109;74;1391;-67
2023/04/15 08:57:24;;;;;;;;;;;21.70;46.30;;;;;;1557288;74;1509;-69
2023/04/15 08:59:26;;;;;;;;;;;21.70;46.20;;;;;;1566182;75;1488;-67
2023/04/15 09:01:28;;;;;;;;;;;21.60;46.20;;;;;;1568732;75;1107;-67
2023/04/15 09:03:30;;;;;;;;;;;21.70;46.10;;;;;;1565466;74;1342;-67
2023/04/15 09:05:32;;;;;;;;;;;21.70;46.10;;;;;;1559139;74;1156;-69
2023/04/15 09:07:35;;;;;;;;;;;21.60;46.10;;;;;;1560634;74;1514;-68
2023/04/15 09:09:39;;;;;;;;;;;21.70;46.20;;;;;;1554093;74;1411;-68
2023/04/15 09:11:41;;;;;;;;;;;21.60;46.20;;;;;;1550186;74;1407;-67
2023/04/15 09:13:43;;;;;;;;;;;21.60;46.20;;;;;;1540239;74;1157;-67
2023/04/15 09:15:45;;;;;;;;;;;21.60;46.30;;;;;;1554378;74;1108;-67
2023/04/15 09:17:47;;;;;;;;;;;21.60;46.20;;;;;;1558826;74;1100;-69
2023/04/15 09:19:49;;;;;;;;;;;21.60;46.20;;;;;;1547800;75;1153;-67
2023/04/15 09:21:53;;;;;;;;;;;21.60;46.20;;;;;;1555371;74;1125;-68
2023/04/15 09:23:56;;;;;;;;;;;21.60;46.30;;;;;;1562224;74;1935;-69
2023/04/15 09:25:58;;;;;;;;;;;21.50;46.30;;;;;;1549945;75;1528;-67
2023/04/15 09:28:00;;;;;;;;;;;21.50;46.60;;;;;;1555154;75;650;-67
2023/04/15 09:30:02;;;;;;;;;;;21.50;46.60;;;;;;1550495;75;648;-66
2023/04/15 09:32:10;;;;;;;;;;;21.50;46.60;;;;;;1550707;75;680;-67
2023/04/15 09:34:12;;;;;;;;;;;21.60;46.60;;;;;;1555171;75;1212;-67
2023/04/15 09:36:14;;;;;;;;;;;21.50;46.60;;;;;;1553646;75;671;-67
2023/04/15 09:38:16;;;;;;;;;;;21.50;46.60;;;;;;1538178;75;667;-67
2023/04/15 09:40:36;;;;;;;;;;;21.50;46.60;;;;;;1551187;75;1344;-67
2023/04/15 09:42:54;;;;;;;;;;;21.50;46.60;;;;;;1563989;75;707;-67
2023/04/15 09:44:56;;;;;;;;;;;21.50;46.60;;;;;;1555086;75;1937;-67
2023/04/15 09:46:58;;;;;;;;;;;21.50;46.70;;;;;;1553150;75;751;-67
2023/04/15 09:49:09;;;;;;;;;;;21.50;46.80;;;;;;1557687;75;850;-67
2023/04/15 09:51:11;;;;;;;;;;;21.50;46.80;;;;;;1550040;75;708;-67
2023/04/15 09:53:15;;;;;;;;;;;21.50;46.90;;;;;;1549675;75;767;-67
2023/04/15 09:55:17;;;;;;;;;;;21.50;46.90;;;;;;1555803;75;1807;-67
2023/04/15 09:57:20;;;;;;;;;;;21.50;46.90;;;;;;1557302;75;678;-67
2023/04/15 09:59:23;;;;;;;;;;;21.50;47.00;;;;;;1550271;75;686;-67
2023/04/15 10:01:24;;;;;;;;;;;21.50;47.00;;;;;;1549705;75;668;-67
2023/04/15 10:03:27;;;;;;;;;;;21.40;46.90;;;;;;1550371;75;758;-67
2023/04/15 10:05:29;;;;;;;;;;;21.50;47.10;;;;;;1567407;74;1938;-67
2023/04/15 10:07:31;;;;;;;;;;;21.50;47.10;;;;;;1563779;75;1576;-67
2023/04/15 10:09:33;;;;;;;;;;;21.50;47.10;;;;;;1565593;75;803;-67
2023/04/15 10:11:35;;;;;;;;;;;21.50;47.10;;;;;;1563184;75;769;-67
2023/04/15 10:13:37;;;;;;;;;;;21.50;47.10;;;;;;1564746;75;732;-67
2023/04/15 10:15:39;;;;;;;;;;;21.50;47.20;;;;;;1546113;75;657;-67
2023/04/15 10:17:41;;;;;;;;;;;21.50;47.20;;;;;;1559181;75;767;-67
2023/04/15 10:19:43;;;;;;;;;;;21.50;47.20;;;;;;1553628;75;747;-67
2023/04/15 10:21:45;;;;;;;;;;;21.50;47.20;;;;;;1562224;75;1586;-67
2023/04/15 10:23:47;;;;;;;;;;;21.60;47.20;;;;;;1548723;75;1149;-67
2023/04/15 10:25:50;;;;;;;;;;;21.50;47.20;;;;;;1549154;75;1950;-67
2023/04/15 10:27:52;;;;;;;;;;;21.50;47.20;;;;;;1559546;75;1056;-67
2023/04/15 10:29:54;;;;;;;;;;;21.60;47.20;;;;;;1545723;75;775;-67
2023/04/15 10:31:56;;;;;;;;;;;21.60;47.20;;;;;;1560270;75;761;-67
2023/04/15 10:34:02;;;;;;;;;;;21.50;47.30;;;;;;1563402;74;1190;-67
2023/04/15 10:36:02;;;;;;;;;;;21.50;47.30;;;;;;1565046;75;1643;-67
2023/04/15 10:38:06;;;;;;;;;;;21.50;47.30;;;;;;1562933;75;678;-67
2023/04/15 10:40:30;;;;;;;;;;;21.50;47.30;;;;;;1559769;75;1650;-67
2023/04/15 10:42:34;;;;;;;;;;;21.50;47.30;;;;;;1565204;75;752;-67
2023/04/15 10:44:37;;;;;;;;;;;21.50;47.40;;;;;;1549287;74;1944;-67
2023/04/15 10:46:39;;;;;;;;;;;21.50;47.40;;;;;;1547266;75;633;-67
2023/04/15 10:48:43;;;;;;;;;;;21.50;47.50;;;;;;1545696;75;668;-67
2023/04/15 10:50:47;;;;;;;;;;;21.50;47.40;;;;;;1556418;75;1630;-67
2023/04/15 10:52:50;;;;;;;;;;;21.50;47.40;;;;;;1557220;75;1917;-67
2023/04/15 10:54:54;;;;;;;;;;;21.50;47.50;;;;;;1557800;75;1104;-67
2023/04/15 10:57:07;;;;;;;;;;;21.40;47.30;;;;;;1550420;75;1838;-67
2023/04/15 10:59:09;;;;;;;;;;;21.50;47.40;;;;;;1558912;75;671;-66
2023/04/15 11:01:11;;;;;;;;;;;21.40;47.30;;;;;;1563446;75;744;-67
2023/04/15 11:03:13;;;;;;;;;;;21.50;47.50;;;;;;1521180;77;705;-67
2023/04/15 11:05:15;;;;;;;;;;;21.50;47.50;;;;;;1532447;76;1964;-66
2023/04/15 11:07:36;;;;;;;;;;;21.50;47.60;;;;;;1551063;76;706;-67
2023/04/15 11:09:38;;;;;;;;;;;21.50;47.50;;;;;;1535908;77;699;-67
2023/04/15 11:11:57;;;;;;;;;;;21.50;47.50;;;;;;1522976;76;700;-66
2023/04/15 11:13:59;;;;;;;;;;;21.50;47.60;;;;;;1536469;75;1134;-67
2023/04/15 11:16:01;;;;;;;;;;;21.50;47.60;;;;;;1496427;77;694;-67
2023/04/15 11:18:08;;;;;;;;;;;21.50;47.60;;;;;;1500695;77;1554;-67
2023/04/15 11:20:10;;;;;;;;;;;21.50;47.60;;;;;;1521327;77;705;-66
2023/04/15 11:22:12;;;;;;;;;;;21.50;47.60;;;;;;1519801;77;1323;-66
2023/04/15 11:24:15;;;;;;;;;;;21.50;47.60;;;;;;1549794;75;1134;-66
2023/04/15 11:26:17;;;;;;;;;;;21.40;47.50;;;;;;1548746;75;1968;-66
2023/04/15 11:28:19;;;;;;;;;;;21.50;47.70;;;;;;1547761;75;1096;-66
2023/04/15 11:30:22;;;;;;;;;;;21.40;47.50;;;;;;1538463;76;929;-67
2023/04/15 11:32:24;;;;;;;;;;;21.40;47.50;;;;;;1546275;76;1576;-67
2023/04/15 11:34:26;;;;;;;;;;;21.40;47.60;;;;;;1533028;75;1173;-65
2023/04/15 11:36:30;;;;;;;;;;;21.40;47.40;;;;;;1549750;75;781;-68
2023/04/15 11:38:33;;;;;;;;;;;21.40;47.50;;;;;;1551850;76;2165;-67
2023/04/15 11:40:35;;;;;;;;;;;21.40;47.60;;;;;;1545693;75;720;-67
2023/04/15 11:42:37;;;;;;;;;;;21.40;47.60;;;;;;1544359;75;660;-67
2023/04/15 11:44:39;;;;;;;;;;;21.40;47.60;;;;;;1537886;76;1934;-67
2023/04/15 11:46:41;;;;;;;;;;;21.40;47.50;;;;;;1543233;75;1544;-67
2023/04/15 11:48:44;;;;;;;;;;;21.40;47.50;;;;;;1539070;75;711;-67
2023/04/15 11:50:46;;;;;;;;;;;21.40;47.40;;;;;;1547505;75;746;-67
2023/04/15 11:52:57;;;;;;;;;;;21.40;47.30;;;;;;1545292;75;653;-67
2023/04/15 11:55:04;;;;;;;;;;;21.40;47.30;;;;;;1545563;76;1168;-66
2023/04/15 11:57:06;;;;;;;;;;;21.40;47.30;;;;;;1546251;75;738;-67
2023/04/15 11:59:08;;;;;;;;;;;21.40;47.30;;;;;;1532514;75;690;-67
2023/04/15 12:01:10;;;;;;;;;;;21.30;47.30;;;;;;1545435;75;1527;-67
2023/04/15 12:03:14;;;;;;;;;;;21.30;47.30;;;;;;1543852;75;796;-67
2023/04/15 12:05:16;;;;;;;;;;;21.30;47.20;;;;;;1543388;75;1951;-67
2023/04/15 12:07:17;;;;;;;;;;;21.40;47.30;;;;;;1553683;76;709;-67
2023/04/15 12:09:20;;;;;;;;;;;21.40;47.30;;;;;;1543015;76;702;-67